sensor_id;sensor_type;location;lat;lon;timestamp;pressure;altitude;pressure_sealevel;temperature;humidity
75629;BME280;64213;46.452;16.994;2023-07-31T00:01:36;99692.66;;;17.07;100.00
75629;BME280;64213;46.452;16.994;2023-07-31T00:04:39;99690.72;;;16.99;100.00
75629;BME280;64213;46.452;16.994;2023-07-31T00:07:41;99688.91;;;17.00;100.00
75629;BME280;64213;46.452;16.994;2023-07-31T00:10:43;99687.09;;;16.90;100.00
75629;BME280;64213;46.452;16.994;2023-07-31T00:13:45;99690.53;;;16.83;100.00
75629;BME280;64213;46.452;16.994;2023-07-31T00:16:47;99690.28;;;16.76;100.00
75629;BME280;64213;46.452;16.994;2023-07-31T00:19:52;99679.59;;;16.66;100.00
75629;BME280;64213;46.452;16.994;2023-07-31T00:22:54;99679.72;;;16.65;100.00
75629;BME280;64213;46.452;16.994;2023-07-31T00:25:56;99679.72;;;16.65;100.00
75629;BME280;64213;46.452;16.994;2023-07-31T00:28:58;99692.25;;;16.64;100.00
75629;BME280;64213;46.452;16.994;2023-07-31T00:32:00;99685.81;;;16.57;100.00
75629;BME280;64213;46.452;16.994;2023-07-31T00:35:02;99691.28;;;16.56;100.00
75629;BME280;64213;46.452;16.994;2023-07-31T00:38:04;99696.53;;;16.47;100.00
75629;BME280;64213;46.452;16.994;2023-07-31T00:41:06;99685.56;;;16.50;100.00
75629;BME280;64213;46.452;16.994;2023-07-31T00:44:08;99682.75;;;16.42;100.00
75629;BME280;64213;46.452;16.994;2023-07-31T00:47:10;99685.03;;;16.37;100.00
75629;BME280;64213;46.452;16.994;2023-07-31T00:50:13;99685.88;;;16.38;100.00
75629;BME280;64213;46.452;16.994;2023-07-31T00:53:16;99695.53;;;16.39;100.00
75629;BME280;64213;46.452;16.994;2023-07-31T00:56:18;99697.81;;;16.34;100.00
75629;BME280;64213;46.452;16.994;2023-07-31T00:59:20;99698.38;;;16.37;100.00
75629;BME280;64213;46.452;16.994;2023-07-31T01:02:22;99712.00;;;16.34;100.00
75629;BME280;64213;46.452;16.994;2023-07-31T01:05:43;99718.31;;;16.33;100.00
75629;BME280;64213;46.452;16.994;2023-07-31T01:12:01;99721.25;;;16.30;100.00
75629;BME280;64213;46.452;16.994;2023-07-31T01:15:06;99719.87;;;16.26;100.00
75629;BME280;64213;46.452;16.994;2023-07-31T01:18:11;99723.53;;;16.25;100.00
75629;BME280;64213;46.452;16.994;2023-07-31T01:21:18;99725.50;;;16.23;100.00
75629;BME280;64213;46.452;16.994;2023-07-31T01:24:48;99717.38;;;16.24;100.00
75629;BME280;64213;46.452;16.994;2023-07-31T01:28:03;99729.28;;;16.20;100.00
75629;BME280;64213;46.452;16.994;2023-07-31T01:31:07;99735.06;;;16.25;100.00
75629;BME280;64213;46.452;16.994;2023-07-31T01:34:13;99729.16;;;16.22;100.00
75629;BME280;64213;46.452;16.994;2023-07-31T01:37:18;99717.66;;;16.21;100.00
75629;BME280;64213;46.452;16.994;2023-07-31T01:40:20;99727.16;;;16.24;100.00
75629;BME280;64213;46.452;16.994;2023-07-31T01:43:22;99717.91;;;16.28;100.00
75629;BME280;64213;46.452;16.994;2023-07-31T01:46:26;99718.47;;;16.32;100.00
75629;BME280;64213;46.452;16.994;2023-07-31T01:49:28;99704.69;;;16.36;100.00
75629;BME280;64213;46.452;16.994;2023-07-31T01:52:30;99715.62;;;16.33;100.00
75629;BME280;64213;46.452;16.994;2023-07-31T01:55:32;99725.19;;;16.36;100.00
75629;BME280;64213;46.452;16.994;2023-07-31T01:58:34;99725.06;;;16.37;100.00
75629;BME280;64213;46.452;16.994;2023-07-31T02:01:36;99738.28;;;16.19;100.00
75629;BME280;64213;46.452;16.994;2023-07-31T02:04:38;99734.78;;;16.19;100.00
75629;BME280;64213;46.452;16.994;2023-07-31T02:07:41;99739.00;;;16.12;100.00
75629;BME280;64213;46.452;16.994;2023-07-31T02:10:43;99740.69;;;16.13;100.00
75629;BME280;64213;46.452;16.994;2023-07-31T02:13:45;99745.03;;;16.14;100.00
75629;BME280;64213;46.452;16.994;2023-07-31T02:16:47;99750.25;;;16.06;100.00
75629;BME280;64213;46.452;16.994;2023-07-31T02:19:49;99753.88;;;16.04;100.00
75629;BME280;64213;46.452;16.994;2023-07-31T02:22:51;99746.03;;;16.03;100.00
75629;BME280;64213;46.452;16.994;2023-07-31T02:25:53;99733.69;;;16.02;100.00
75629;BME280;64213;46.452;16.994;2023-07-31T02:28:55;99732.81;;;16.01;100.00
75629;BME280;64213;46.452;16.994;2023-07-31T02:31:57;99729.19;;;16.02;100.00
75629;BME280;64213;46.452;16.994;2023-07-31T02:34:59;99730.84;;;16.03;100.00
75629;BME280;64213;46.452;16.994;2023-07-31T02:38:01;99735.47;;;16.01;100.00
75629;BME280;64213;46.452;16.994;2023-07-31T02:41:03;99730.56;;;16.07;100.00
75629;BME280;64213;46.452;16.994;2023-07-31T02:44:05;99734.22;;;16.06;100.00
75629;BME280;64213;46.452;16.994;2023-07-31T02:47:07;99741.69;;;15.92;100.00
75629;BME280;64213;46.452;16.994;2023-07-31T02:50:09;99751.91;;;15.87;100.00
75629;BME280;64213;46.452;16.994;2023-07-31T02:53:11;99742.91;;;15.78;100.00
75629;BME280;64213;46.452;16.994;2023-07-31T02:56:13;99738.00;;;15.74;100.00
75629;BME280;64213;46.452;16.994;2023-07-31T02:59:16;99736.72;;;15.68;100.00
75629;BME280;64213;46.452;16.994;2023-07-31T03:02:19;99740.06;;;15.61;100.00
75629;BME280;64213;46.452;16.994;2023-07-31T03:05:21;99745.94;;;15.45;100.00
75629;BME280;64213;46.452;16.994;2023-07-31T03:08:23;99747.31;;;15.39;100.00
75629;BME280;64213;46.452;16.994;2023-07-31T03:11:25;99747.44;;;15.38;100.00
75629;BME280;64213;46.452;16.994;2023-07-31T03:14:27;99751.63;;;15.30;100.00
75629;BME280;64213;46.452;16.994;2023-07-31T03:17:29;99754.16;;;15.22;100.00
75629;BME280;64213;46.452;16.994;2023-07-31T03:20:31;99758.75;;;15.20;100.00
75629;BME280;64213;46.452;16.994;2023-07-31T03:23:33;99752.59;;;15.20;100.00
75629;BME280;64213;46.452;16.994;2023-07-31T03:26:35;99755.94;;;15.22;100.00
75629;BME280;64213;46.452;16.994;2023-07-31T03:29:38;99764.37;;;15.27;100.00
75629;BME280;64213;46.452;16.994;2023-07-31T03:32:41;99774.78;;;15.30;100.00
75629;BME280;64213;46.452;16.994;2023-07-31T03:35:43;99777.88;;;15.35;100.00
75629;BME280;64213;46.452;16.994;2023-07-31T03:38:46;99773.41;;;15.35;100.00
75629;BME280;64213;46.452;16.994;2023-07-31T03:41:48;99777.88;;;15.35;100.00
75629;BME280;64213;46.452;16.994;2023-07-31T03:44:50;99778.16;;;15.32;100.00
75629;BME280;64213;46.452;16.994;2023-07-31T03:47:52;99776.97;;;15.25;100.00
75629;BME280;64213;46.452;16.994;2023-07-31T03:50:55;99780.25;;;15.28;100.00
75629;BME280;64213;46.452;16.994;2023-07-31T03:53:57;99784.31;;;15.32;100.00
75629;BME280;64213;46.452;16.994;2023-07-31T03:56:59;99785.63;;;15.38;100.00
75629;BME280;64213;46.452;16.994;2023-07-31T04:00:01;99785.47;;;15.40;100.00
75629;BME280;64213;46.452;16.994;2023-07-31T04:03:03;99801.47;;;15.40;100.00
75629;BME280;64213;46.452;16.994;2023-07-31T04:06:05;99810.00;;;15.33;100.00
75629;BME280;64213;46.452;16.994;2023-07-31T04:09:08;99814.28;;;15.25;100.00
75629;BME280;64213;46.452;16.994;2023-07-31T04:12:10;99805.88;;;15.20;100.00
75629;BME280;64213;46.452;16.994;2023-07-31T04:15:12;99806.03;;;15.28;100.00
75629;BME280;64213;46.452;16.994;2023-07-31T04:18:14;99808.16;;;15.34;100.00
75629;BME280;64213;46.452;16.994;2023-07-31T04:21:16;99812.38;;;15.37;100.00
75629;BME280;64213;46.452;16.994;2023-07-31T04:24:19;99811.00;;;15.42;100.00
75629;BME280;64213;46.452;16.994;2023-07-31T04:27:26;99811.28;;;15.39;100.00
75629;BME280;64213;46.452;16.994;2023-07-31T04:30:28;99812.69;;;15.43;100.00
75629;BME280;64213;46.452;16.994;2023-07-31T04:33:30;99813.28;;;15.56;100.00
75629;BME280;64213;46.452;16.994;2023-07-31T04:36:33;99816.13;;;15.65;100.00
75629;BME280;64213;46.452;16.994;2023-07-31T04:39:35;99815.06;;;15.77;100.00
75629;BME280;64213;46.452;16.994;2023-07-31T04:42:37;99813.09;;;15.89;100.00
75629;BME280;64213;46.452;16.994;2023-07-31T04:45:39;99818.75;;;15.95;100.00
75629;BME280;64213;46.452;16.994;2023-07-31T04:48:41;99824.78;;;15.97;100.00
75629;BME280;64213;46.452;16.994;2023-07-31T04:51:43;99824.94;;;15.96;100.00
75629;BME280;64213;46.452;16.994;2023-07-31T04:54:45;99821.00;;;16.00;100.00
75629;BME280;64213;46.452;16.994;2023-07-31T04:57:47;99828.59;;;16.04;100.00
75629;BME280;64213;46.452;16.994;2023-07-31T05:00:49;99823.53;;;16.11;100.00
75629;BME280;64213;46.452;16.994;2023-07-31T05:03:51;99824.69;;;16.18;100.00
75629;BME280;64213;46.452;16.994;2023-07-31T05:06:53;99817.91;;;16.24;100.00
75629;BME280;64213;46.452;16.994;2023-07-31T05:09:55;99815.97;;;16.36;100.00
75629;BME280;64213;46.452;16.994;2023-07-31T05:12:59;99818.91;;;16.42;100.00
75629;BME280;64213;46.452;16.994;2023-07-31T05:16:01;99820.19;;;16.48;99.90
75629;BME280;64213;46.452;16.994;2023-07-31T05:19:04;99821.16;;;16.57;99.70
75629;BME280;64213;46.452;16.994;2023-07-31T05:22:06;99813.84;;;16.59;99.64
75629;BME280;64213;46.452;16.994;2023-07-31T05:25:08;99816.09;;;16.54;99.69
75629;BME280;64213;46.452;16.994;2023-07-31T05:28:11;99826.22;;;16.50;99.80
75629;BME280;64213;46.452;16.994;2023-07-31T05:31:14;99835.19;;;16.59;99.63
75629;BME280;64213;46.452;16.994;2023-07-31T05:34:16;99837.47;;;16.63;99.49
75629;BME280;64213;46.452;16.994;2023-07-31T05:37:18;99832.25;;;16.62;99.00
75629;BME280;64213;46.452;16.994;2023-07-31T05:40:20;99836.34;;;16.66;98.99
75629;BME280;64213;46.452;16.994;2023-07-31T05:43:22;99840.69;;;16.67;98.97
75629;BME280;64213;46.452;16.994;2023-07-31T05:46:24;99839.13;;;16.84;98.52
75629;BME280;64213;46.452;16.994;2023-07-31T05:49:26;99842.34;;;16.97;98.00
75629;BME280;64213;46.452;16.994;2023-07-31T05:52:28;99838.66;;;17.17;97.12
75629;BME280;64213;46.452;16.994;2023-07-31T05:55:30;99831.56;;;17.36;96.50
75629;BME280;64213;46.452;16.994;2023-07-31T05:58:32;99846.63;;;17.55;95.55
75629;BME280;64213;46.452;16.994;2023-07-31T06:01:34;99848.25;;;17.75;94.57
75629;BME280;64213;46.452;16.994;2023-07-31T06:04:36;99849.53;;;17.99;93.54
75629;BME280;64213;46.452;16.994;2023-07-31T06:07:39;99857.59;;;18.34;91.39
75629;BME280;64213;46.452;16.994;2023-07-31T06:10:41;99844.88;;;18.90;87.53
75629;BME280;64213;46.452;16.994;2023-07-31T06:13:43;99843.75;;;19.61;84.73
75629;BME280;64213;46.452;16.994;2023-07-31T06:16:46;99852.34;;;20.15;80.30
75629;BME280;64213;46.452;16.994;2023-07-31T06:19:49;99849.56;;;20.82;77.54
75629;BME280;64213;46.452;16.994;2023-07-31T06:22:51;99840.28;;;21.18;74.98
75629;BME280;64213;46.452;16.994;2023-07-31T06:25:53;99844.19;;;21.71;73.08
75629;BME280;64213;46.452;16.994;2023-07-31T06:28:55;99836.97;;;22.34;71.00
75629;BME280;64213;46.452;16.994;2023-07-31T06:31:57;99842.25;;;22.65;69.82
75629;BME280;64213;46.452;16.994;2023-07-31T06:35:02;99841.19;;;23.12;67.20
75629;BME280;64213;46.452;16.994;2023-07-31T06:38:04;99845.34;;;23.00;64.56
75629;BME280;64213;46.452;16.994;2023-07-31T06:41:06;99854.78;;;23.33;63.89
75629;BME280;64213;46.452;16.994;2023-07-31T06:44:08;99855.16;;;23.45;62.30
75629;BME280;64213;46.452;16.994;2023-07-31T06:47:10;99853.75;;;23.94;60.60
75629;BME280;64213;46.452;16.994;2023-07-31T06:50:12;99865.13;;;24.25;57.66
75629;BME280;64213;46.452;16.994;2023-07-31T06:53:14;99860.88;;;24.37;55.79
75629;BME280;64213;46.452;16.994;2023-07-31T06:56:16;99862.28;;;24.48;54.92
75629;BME280;64213;46.452;16.994;2023-07-31T06:59:18;99870.00;;;24.51;54.70
75629;BME280;64213;46.452;16.994;2023-07-31T07:02:20;99865.44;;;24.73;53.78
75629;BME280;64213;46.452;16.994;2023-07-31T07:05:22;99874.31;;;24.67;54.30
75629;BME280;64213;46.452;16.994;2023-07-31T07:08:24;99867.31;;;25.01;52.71
75629;BME280;64213;46.452;16.994;2023-07-31T07:11:28;99867.97;;;24.81;52.10
75629;BME280;64213;46.452;16.994;2023-07-31T07:14:30;99877.13;;;25.65;50.84
75629;BME280;64213;46.452;16.994;2023-07-31T07:17:32;99867.03;;;25.17;50.88
75629;BME280;64213;46.452;16.994;2023-07-31T07:20:34;99867.31;;;25.01;50.45
75629;BME280;64213;46.452;16.994;2023-07-31T07:23:36;99872.13;;;24.77;50.40
75629;BME280;64213;46.452;16.994;2023-07-31T07:26:38;99874.53;;;24.94;49.67
75629;BME280;64213;46.452;16.994;2023-07-31T07:29:40;99874.13;;;25.46;49.08
75629;BME280;64213;46.452;16.994;2023-07-31T07:32:42;99871.97;;;25.35;47.60
75629;BME280;64213;46.452;16.994;2023-07-31T07:35:45;99864.75;;;25.84;46.74
75629;BME280;64213;46.452;16.994;2023-07-31T07:38:47;99865.00;;;25.89;46.97
75629;BME280;64213;46.452;16.994;2023-07-31T07:41:49;99855.28;;;26.14;46.05
75629;BME280;64213;46.452;16.994;2023-07-31T07:44:51;99864.97;;;26.50;44.97
75629;BME280;64213;46.452;16.994;2023-07-31T07:47:53;99854.56;;;25.86;45.38
75629;BME280;64213;46.452;16.994;2023-07-31T07:50:55;99858.72;;;26.56;44.35
75629;BME280;64213;46.452;16.994;2023-07-31T07:53:58;99848.72;;;26.63;43.62
75629;BME280;64213;46.452;16.994;2023-07-31T07:57:00;99838.88;;;26.42;43.62
75629;BME280;64213;46.452;16.994;2023-07-31T08:00:03;99842.22;;;26.51;43.67
75629;BME280;64213;46.452;16.994;2023-07-31T08:03:05;99842.25;;;26.64;43.92
75629;BME280;64213;46.452;16.994;2023-07-31T08:06:08;99846.44;;;26.94;43.51
75629;BME280;64213;46.452;16.994;2023-07-31T08:09:11;99842.19;;;26.38;43.00
75629;BME280;64213;46.452;16.994;2023-07-31T08:12:13;99852.69;;;26.81;42.88
75629;BME280;64213;46.452;16.994;2023-07-31T08:15:15;99849.75;;;27.35;41.56
75629;BME280;64213;46.452;16.994;2023-07-31T08:18:17;99858.13;;;27.14;42.06
75629;BME280;64213;46.452;16.994;2023-07-31T08:21:19;99857.44;;;27.45;40.08
75629;BME280;64213;46.452;16.994;2023-07-31T08:24:21;99858.69;;;28.08;39.85
75629;BME280;64213;46.452;16.994;2023-07-31T08:27:23;99859.84;;;28.32;39.60
75629;BME280;64213;46.452;16.994;2023-07-31T08:30:25;99859.62;;;28.65;38.82
75629;BME280;64213;46.452;16.994;2023-07-31T08:33:27;99859.03;;;28.63;38.26
75629;BME280;64213;46.452;16.994;2023-07-31T08:36:29;99857.47;;;28.73;38.49
75629;BME280;64213;46.452;16.994;2023-07-31T08:39:31;99865.94;;;29.15;37.88
75629;BME280;64213;46.452;16.994;2023-07-31T08:42:33;99861.44;;;29.03;38.17
75629;BME280;64213;46.452;16.994;2023-07-31T08:45:35;99857.72;;;28.40;38.34
75629;BME280;64213;46.452;16.994;2023-07-31T08:48:39;99855.75;;;28.79;37.83
75629;BME280;64213;46.452;16.994;2023-07-31T08:51:42;99866.25;;;28.05;40.08
75629;BME280;64213;46.452;16.994;2023-07-31T08:54:45;99866.72;;;28.34;38.90
75629;BME280;64213;46.452;16.994;2023-07-31T08:57:47;99863.47;;;27.61;38.87
75629;BME280;64213;46.452;16.994;2023-07-31T09:00:50;99868.91;;;27.61;39.36
75629;BME280;64213;46.452;16.994;2023-07-31T09:03:55;99857.06;;;28.00;38.73
75629;BME280;64213;46.452;16.994;2023-07-31T09:07:01;99863.50;;;28.50;38.26
75629;BME280;64213;46.452;16.994;2023-07-31T09:10:05;99851.31;;;29.10;36.90
75629;BME280;64213;46.452;16.994;2023-07-31T09:13:07;99858.19;;;28.87;37.32
75629;BME280;64213;46.452;16.994;2023-07-31T09:16:13;99859.38;;;28.41;37.84
75629;BME280;64213;46.452;16.994;2023-07-31T09:19:25;99851.53;;;28.83;36.92
75629;BME280;64213;46.452;16.994;2023-07-31T09:22:34;99851.84;;;28.37;38.10
75629;BME280;64213;46.452;16.994;2023-07-31T09:25:39;99845.66;;;28.23;38.51
75629;BME280;64213;46.452;16.994;2023-07-31T09:28:41;99843.34;;;29.52;36.64
75629;BME280;64213;46.452;16.994;2023-07-31T09:31:43;99842.03;;;30.09;35.41
75629;BME280;64213;46.452;16.994;2023-07-31T09:34:47;99836.34;;;30.11;35.19
75629;BME280;64213;46.452;16.994;2023-07-31T09:37:53;99840.13;;;29.18;37.09
75629;BME280;64213;46.452;16.994;2023-07-31T09:40:58;99831.13;;;29.54;36.71
75629;BME280;64213;46.452;16.994;2023-07-31T09:44:00;99829.25;;;29.92;35.97
75629;BME280;64213;46.452;16.994;2023-07-31T09:47:02;99826.63;;;30.99;34.74
75629;BME280;64213;46.452;16.994;2023-07-31T09:50:07;99827.56;;;30.93;35.48
75629;BME280;64213;46.452;16.994;2023-07-31T09:53:09;99829.47;;;31.27;34.25
75629;BME280;64213;46.452;16.994;2023-07-31T09:56:11;99818.81;;;31.66;34.23
75629;BME280;64213;46.452;16.994;2023-07-31T09:59:19;99811.09;;;30.69;34.81
75629;BME280;64213;46.452;16.994;2023-07-31T10:02:26;99815.41;;;31.59;33.86
75629;BME280;64213;46.452;16.994;2023-07-31T10:05:32;99816.97;;;30.85;35.76
75629;BME280;64213;46.452;16.994;2023-07-31T10:08:36;99820.44;;;31.79;34.16
75629;BME280;64213;46.452;16.994;2023-07-31T10:11:42;99800.28;;;31.97;33.27
75629;BME280;64213;46.452;16.994;2023-07-31T10:14:45;99803.50;;;31.94;33.92
75629;BME280;64213;46.452;16.994;2023-07-31T10:17:49;99803.34;;;31.08;34.81
75629;BME280;64213;46.452;16.994;2023-07-31T10:20:52;99794.25;;;31.95;33.61
75629;BME280;64213;46.452;16.994;2023-07-31T10:23:55;99798.91;;;32.74;32.61
75629;BME280;64213;46.452;16.994;2023-07-31T10:27:00;99789.59;;;32.41;32.67
75629;BME280;64213;46.452;16.994;2023-07-31T10:30:04;99799.56;;;31.61;34.56
75629;BME280;64213;46.452;16.994;2023-07-31T10:33:08;99796.78;;;30.20;35.73
75629;BME280;64213;46.452;16.994;2023-07-31T10:36:28;99789.31;;;29.97;36.32
75629;BME280;64213;46.452;16.994;2023-07-31T10:39:35;99782.44;;;29.58;37.20
75629;BME280;64213;46.452;16.994;2023-07-31T10:42:49;99780.41;;;30.20;36.36
75629;BME280;64213;46.452;16.994;2023-07-31T10:45:51;99789.91;;;30.29;34.56
75629;BME280;64213;46.452;16.994;2023-07-31T10:48:58;99784.97;;;29.59;36.04
75629;BME280;64213;46.452;16.994;2023-07-31T10:52:03;99783.94;;;28.98;36.99
75629;BME280;64213;46.452;16.994;2023-07-31T10:55:15;99789.97;;;28.82;38.29
75629;BME280;64213;46.452;16.994;2023-07-31T10:58:19;99777.38;;;30.10;36.28
75629;BME280;64213;46.452;16.994;2023-07-31T11:01:22;99771.72;;;30.89;34.65
75629;BME280;64213;46.452;16.994;2023-07-31T11:04:26;99770.66;;;32.23;32.99
75629;BME280;64213;46.452;16.994;2023-07-31T11:07:46;99775.09;;;31.95;32.71
75629;BME280;64213;46.452;16.994;2023-07-31T11:11:05;99764.66;;;32.09;31.59
75629;BME280;64213;46.452;16.994;2023-07-31T11:14:10;99764.19;;;32.29;32.38
75629;BME280;64213;46.452;16.994;2023-07-31T11:17:12;99757.28;;;31.81;32.48
75629;BME280;64213;46.452;16.994;2023-07-31T11:20:14;99753.25;;;32.79;32.13
75629;BME280;64213;46.452;16.994;2023-07-31T11:23:17;99755.44;;;32.60;31.51
75629;BME280;64213;46.452;16.994;2023-07-31T11:26:19;99751.53;;;31.94;32.68
75629;BME280;64213;46.452;16.994;2023-07-31T11:29:27;99744.97;;;32.57;32.13
75629;BME280;64213;46.452;16.994;2023-07-31T11:32:29;99730.12;;;32.92;31.40
75629;BME280;64213;46.452;16.994;2023-07-31T11:35:33;99728.16;;;33.04;31.61
75629;BME280;64213;46.452;16.994;2023-07-31T11:38:35;99735.34;;;32.72;32.32
75629;BME280;64213;46.452;16.994;2023-07-31T11:41:40;99738.38;;;31.91;33.11
75629;BME280;64213;46.452;16.994;2023-07-31T11:44:42;99723.72;;;32.14;32.79
75629;BME280;64213;46.452;16.994;2023-07-31T11:47:49;99708.94;;;32.15;32.96
75629;BME280;64213;46.452;16.994;2023-07-31T11:50:52;99720.06;;;31.51;33.91
75629;BME280;64213;46.452;16.994;2023-07-31T11:53:57;99722.78;;;30.99;34.98
75629;BME280;64213;46.452;16.994;2023-07-31T11:57:00;99714.31;;;31.81;33.27
75629;BME280;64213;46.452;16.994;2023-07-31T12:00:03;99714.25;;;32.05;32.08
75629;BME280;64213;46.452;16.994;2023-07-31T12:03:06;99710.03;;;32.64;31.48
75629;BME280;64213;46.452;16.994;2023-07-31T12:06:08;99697.91;;;33.65;30.83
75629;BME280;64213;46.452;16.994;2023-07-31T12:09:15;99695.66;;;33.57;30.29
75629;BME280;64213;46.452;16.994;2023-07-31T12:12:25;99693.28;;;33.00;30.93
75629;BME280;64213;46.452;16.994;2023-07-31T12:15:32;99692.50;;;32.32;32.40
75629;BME280;64213;46.452;16.994;2023-07-31T12:18:36;99681.25;;;33.01;31.43
75629;BME280;64213;46.452;16.994;2023-07-31T12:21:38;99675.06;;;32.72;32.05
75629;BME280;64213;46.452;16.994;2023-07-31T12:24:42;99672.13;;;32.39;32.31
75629;BME280;64213;46.452;16.994;2023-07-31T12:27:46;99662.06;;;32.28;32.16
75629;BME280;64213;46.452;16.994;2023-07-31T12:30:48;99649.03;;;32.35;32.21
75629;BME280;64213;46.452;16.994;2023-07-31T12:33:51;99651.22;;;32.16;32.25
75629;BME280;64213;46.452;16.994;2023-07-31T12:36:53;99639.00;;;32.97;31.38
75629;BME280;64213;46.452;16.994;2023-07-31T12:39:55;99641.03;;;33.55;30.88
75629;BME280;64213;46.452;16.994;2023-07-31T12:43:01;99643.13;;;34.02;29.96
75629;BME280;64213;46.452;16.994;2023-07-31T12:46:06;99644.88;;;32.88;31.76
75629;BME280;64213;46.452;16.994;2023-07-31T12:49:09;99636.94;;;33.09;31.82
75629;BME280;64213;46.452;16.994;2023-07-31T12:52:12;99637.25;;;32.35;32.59
75629;BME280;64213;46.452;16.994;2023-07-31T12:55:14;99638.84;;;31.97;32.92
75629;BME280;64213;46.452;16.994;2023-07-31T12:58:16;99639.19;;;31.26;33.62
75629;BME280;64213;46.452;16.994;2023-07-31T13:01:18;99631.78;;;31.39;34.16
75629;BME280;64213;46.452;16.994;2023-07-31T13:04:20;99629.03;;;31.67;33.91
75629;BME280;64213;46.452;16.994;2023-07-31T13:07:23;99620.81;;;32.35;33.24
75629;BME280;64213;46.452;16.994;2023-07-31T13:10:25;99605.66;;;32.44;32.51
75629;BME280;64213;46.452;16.994;2023-07-31T13:13:29;99601.41;;;32.53;32.46
75629;BME280;64213;46.452;16.994;2023-07-31T13:16:33;99598.00;;;32.07;33.52
75629;BME280;64213;46.452;16.994;2023-07-31T13:19:36;99594.53;;;33.17;32.17
75629;BME280;64213;46.452;16.994;2023-07-31T13:22:38;99596.44;;;33.16;31.58
75629;BME280;64213;46.452;16.994;2023-07-31T13:25:40;99594.38;;;31.73;32.59
75629;BME280;64213;46.452;16.994;2023-07-31T13:28:42;99593.38;;;30.65;34.60
75629;BME280;64213;46.452;16.994;2023-07-31T13:31:44;99595.44;;;31.26;34.25
75629;BME280;64213;46.452;16.994;2023-07-31T13:34:47;99593.84;;;30.73;34.80
75629;BME280;64213;46.452;16.994;2023-07-31T13:37:49;99599.53;;;31.24;34.47
75629;BME280;64213;46.452;16.994;2023-07-31T13:40:51;99578.56;;;30.61;34.01
75629;BME280;64213;46.452;16.994;2023-07-31T13:43:53;99578.31;;;30.15;35.45
75629;BME280;64213;46.452;16.994;2023-07-31T13:46:55;99569.16;;;29.62;36.27
75629;BME280;64213;46.452;16.994;2023-07-31T13:49:57;99565.53;;;29.08;37.59
75629;BME280;64213;46.452;16.994;2023-07-31T13:52:59;99565.34;;;28.55;38.34
75629;BME280;64213;46.452;16.994;2023-07-31T13:56:01;99565.03;;;28.01;39.95
75629;BME280;64213;46.452;16.994;2023-07-31T13:59:03;99564.34;;;27.87;40.68
75629;BME280;64213;46.452;16.994;2023-07-31T14:02:05;99550.00;;;28.79;39.71
75629;BME280;64213;46.452;16.994;2023-07-31T14:05:08;99546.56;;;28.83;39.66
75629;BME280;64213;46.452;16.994;2023-07-31T14:08:11;99549.28;;;29.02;40.17
75629;BME280;64213;46.452;16.994;2023-07-31T14:11:13;99557.28;;;28.96;40.70
75629;BME280;64213;46.452;16.994;2023-07-31T14:14:16;99552.75;;;27.98;42.29
75629;BME280;64213;46.452;16.994;2023-07-31T14:17:19;99549.97;;;27.80;42.47
75629;BME280;64213;46.452;16.994;2023-07-31T14:20:22;99551.44;;;27.83;42.77
75629;BME280;64213;46.452;16.994;2023-07-31T14:23:24;99558.87;;;27.30;44.27
75629;BME280;64213;46.452;16.994;2023-07-31T14:26:26;99551.31;;;27.01;44.34
75629;BME280;64213;46.452;16.994;2023-07-31T14:29:28;99556.72;;;27.07;44.31
75629;BME280;64213;46.452;16.994;2023-07-31T14:32:30;99553.63;;;26.97;44.40
75629;BME280;64213;46.452;16.994;2023-07-31T14:35:32;99558.63;;;27.00;44.62
75629;BME280;64213;46.452;16.994;2023-07-31T14:38:34;99545.63;;;27.16;44.76
75629;BME280;64213;46.452;16.994;2023-07-31T14:41:36;99543.84;;;27.28;44.67
75629;BME280;64213;46.452;16.994;2023-07-31T14:44:38;99541.91;;;27.67;43.99
75629;BME280;64213;46.452;16.994;2023-07-31T14:47:40;99547.84;;;27.82;43.76
75629;BME280;64213;46.452;16.994;2023-07-31T14:50:42;99543.34;;;27.94;42.77
75629;BME280;64213;46.452;16.994;2023-07-31T14:53:44;99534.50;;;28.42;41.94
75629;BME280;64213;46.452;16.994;2023-07-31T14:56:46;99522.06;;;28.53;41.90
75629;BME280;64213;46.452;16.994;2023-07-31T14:59:48;99513.25;;;29.00;41.02
75629;BME280;64213;46.452;16.994;2023-07-31T15:02:50;99510.91;;;28.55;41.76
75629;BME280;64213;46.452;16.994;2023-07-31T15:05:53;99502.66;;;29.10;41.16
75629;BME280;64213;46.452;16.994;2023-07-31T15:08:55;99503.75;;;29.74;40.79
75629;BME280;64213;46.452;16.994;2023-07-31T15:11:57;99497.53;;;29.43;40.05
75629;BME280;64213;46.452;16.994;2023-07-31T15:14:59;99493.28;;;28.76;41.56
75629;BME280;64213;46.452;16.994;2023-07-31T15:18:01;99492.03;;;28.90;41.96
75629;BME280;64213;46.452;16.994;2023-07-31T15:21:03;99494.66;;;28.96;42.07
75629;BME280;64213;46.452;16.994;2023-07-31T15:24:07;99479.69;;;28.87;42.40
75629;BME280;64213;46.452;16.994;2023-07-31T15:27:09;99486.12;;;28.08;43.92
75629;BME280;64213;46.452;16.994;2023-07-31T15:30:11;99469.63;;;27.84;44.35
75629;BME280;64213;46.452;16.994;2023-07-31T15:33:14;99467.41;;;27.99;44.40
75629;BME280;64213;46.452;16.994;2023-07-31T15:36:16;99466.59;;;27.74;45.10
75629;BME280;64213;46.452;16.994;2023-07-31T15:39:19;99463.22;;;27.78;44.84
75629;BME280;64213;46.452;16.994;2023-07-31T15:42:21;99450.53;;;27.91;44.96
75629;BME280;64213;46.452;16.994;2023-07-31T15:45:23;99441.09;;;27.93;44.73
75629;BME280;64213;46.452;16.994;2023-07-31T15:48:25;99452.34;;;27.53;45.86
75629;BME280;64213;46.452;16.994;2023-07-31T15:51:27;99438.72;;;27.35;46.19
75629;BME280;64213;46.452;16.994;2023-07-31T15:54:29;99429.84;;;27.46;46.43
75629;BME280;64213;46.452;16.994;2023-07-31T15:57:31;99443.09;;;27.61;46.29